Central Valley, Washington
Current Conditions -  °F | °C
As of 12:55 AM on Saturday 22 Nov 2014 (Local Time) from KPWT Reporting Station
Clear Clear  
Wind Chill: 37°   Ceiling: Unl
Heat Index: 43°   Visibility: 10mi
Dew Point: 41°   Wind: 10mph
Humidity: 93%   Direction: 190°S
Pressure: 29.56"   Gusts: 17mph
Location:  47.7571°N, 122.623°W
Report Text: KPWT 220855Z AUTO 19009G15KT 10SM CLR 06/05 A2956 RMK AO1 52044
Loading
Personal Weather Stations






























Interactive Weather Map New forecast layout! Learn more

10-Day Weather Forecast

Advertisements
Track Severe Weather on mobile